sensor_id;sensor_type;location;lat;lon;timestamp;P1;P2;P0
44350;PMS5003;62766;62.622;17.912;2022-10-16T00:01:26;0;0;
44350;PMS5003;62766;62.622;17.912;2022-10-16T00:03:58;0;0;
44350;PMS5003;62766;62.622;17.912;2022-10-16T00:06:28;1;1;
44350;PMS5003;62766;62.622;17.912;2022-10-16T00:08:58;0;0;
44350;PMS5003;62766;62.622;17.912;2022-10-16T00:11:27;0;0;
44350;PMS5003;62766;62.622;17.912;2022-10-16T00:13:58;0;0;
44350;PMS5003;62766;62.622;17.912;2022-10-16T00:16:28;0;0;
44350;PMS5003;62766;62.622;17.912;2022-10-16T00:18:58;0;0;
44350;PMS5003;62766;62.622;17.912;2022-10-16T00:21:27;0;0;
44350;PMS5003;62766;62.622;17.912;2022-10-16T00:23:59;0;0;
44350;PMS5003;62766;62.622;17.912;2022-10-16T00:26:30;2;0;
44350;PMS5003;62766;62.622;17.912;2022-10-16T00:29:00;0;0;
44350;PMS5003;62766;62.622;17.912;2022-10-16T00:31:28;0;0;
44350;PMS5003;62766;62.622;17.912;2022-10-16T00:33:57;2;2;
44350;PMS5003;62766;62.622;17.912;2022-10-16T00:36:26;0;0;
44350;PMS5003;62766;62.622;17.912;2022-10-16T00:38:55;0;0;
44350;PMS5003;62766;62.622;17.912;2022-10-16T00:41:24;0;0;
44350;PMS5003;62766;62.622;17.912;2022-10-16T00:43:54;1;0;
44350;PMS5003;62766;62.622;17.912;2022-10-16T00:46:23;0;0;
44350;PMS5003;62766;62.622;17.912;2022-10-16T00:48:55;0;0;
44350;PMS5003;62766;62.622;17.912;2022-10-16T00:51:30;0;0;
44350;PMS5003;62766;62.622;17.912;2022-10-16T00:54:02;0;0;
44350;PMS5003;62766;62.622;17.912;2022-10-16T00:56:32;0;0;
44350;PMS5003;62766;62.622;17.912;2022-10-16T00:59:02;0;0;
44350;PMS5003;62766;62.622;17.912;2022-10-16T01:01:34;0;0;
44350;PMS5003;62766;62.622;17.912;2022-10-16T01:04:02;2;1;
44350;PMS5003;62766;62.622;17.912;2022-10-16T01:06:32;2;2;
44350;PMS5003;62766;62.622;17.912;2022-10-16T01:09:12;1;1;
44350;PMS5003;62766;62.622;17.912;2022-10-16T01:11:48;0;0;
44350;PMS5003;62766;62.622;17.912;2022-10-16T01:14:25;0;0;
44350;PMS5003;62766;62.622;17.912;2022-10-16T01:17:01;0;0;
44350;PMS5003;62766;62.622;17.912;2022-10-16T01:19:38;0;0;
44350;PMS5003;62766;62.622;17.912;2022-10-16T01:22:18;0;0;
44350;PMS5003;62766;62.622;17.912;2022-10-16T01:24:50;0;0;
44350;PMS5003;62766;62.622;17.912;2022-10-16T01:27:22;0;0;
44350;PMS5003;62766;62.622;17.912;2022-10-16T01:29:54;1;1;
44350;PMS5003;62766;62.622;17.912;2022-10-16T01:32:31;1;1;
44350;PMS5003;62766;62.622;17.912;2022-10-16T01:35:04;2;0;
44350;PMS5003;62766;62.622;17.912;2022-10-16T01:37:40;2;2;
44350;PMS5003;62766;62.622;17.912;2022-10-16T01:40:16;1;1;
44350;PMS5003;62766;62.622;17.912;2022-10-16T01:42:48;5;3;
44350;PMS5003;62766;62.622;17.912;2022-10-16T01:45:21;4;4;
44350;PMS5003;62766;62.622;17.912;2022-10-16T01:47:49;3;3;
44350;PMS5003;62766;62.622;17.912;2022-10-16T01:50:21;3;2;
44350;PMS5003;62766;62.622;17.912;2022-10-16T01:52:52;1;1;
44350;PMS5003;62766;62.622;17.912;2022-10-16T01:55:26;2;2;
44350;PMS5003;62766;62.622;17.912;2022-10-16T01:58:01;3;3;
44350;PMS5003;62766;62.622;17.912;2022-10-16T02:00:32;2;2;
44350;PMS5003;62766;62.622;17.912;2022-10-16T02:03:02;2;2;
44350;PMS5003;62766;62.622;17.912;2022-10-16T02:05:38;3;3;
44350;PMS5003;62766;62.622;17.912;2022-10-16T02:08:10;3;3;
44350;PMS5003;62766;62.622;17.912;2022-10-16T02:10:38;4;4;
44350;PMS5003;62766;62.622;17.912;2022-10-16T02:13:09;1;1;
44350;PMS5003;62766;62.622;17.912;2022-10-16T02:15:40;1;1;
44350;PMS5003;62766;62.622;17.912;2022-10-16T02:18:08;2;2;
44350;PMS5003;62766;62.622;17.912;2022-10-16T02:20:40;1;1;
44350;PMS5003;62766;62.622;17.912;2022-10-16T02:23:18;2;2;
44350;PMS5003;62766;62.622;17.912;2022-10-16T02:25:56;1;1;
44350;PMS5003;62766;62.622;17.912;2022-10-16T02:28:31;2;2;
44350;PMS5003;62766;62.622;17.912;2022-10-16T02:31:06;4;2;
44350;PMS5003;62766;62.622;17.912;2022-10-16T02:33:37;3;3;
44350;PMS5003;62766;62.622;17.912;2022-10-16T02:36:09;3;3;
44350;PMS5003;62766;62.622;17.912;2022-10-16T02:38:39;5;5;
44350;PMS5003;62766;62.622;17.912;2022-10-16T02:41:09;3;3;
44350;PMS5003;62766;62.622;17.912;2022-10-16T02:43:37;5;4;
44350;PMS5003;62766;62.622;17.912;2022-10-16T02:46:06;5;4;
44350;PMS5003;62766;62.622;17.912;2022-10-16T02:48:34;4;4;
44350;PMS5003;62766;62.622;17.912;2022-10-16T02:51:02;7;7;
44350;PMS5003;62766;62.622;17.912;2022-10-16T02:53:31;5;5;
44350;PMS5003;62766;62.622;17.912;2022-10-16T02:55:59;0;0;
44350;PMS5003;62766;62.622;17.912;2022-10-16T02:58:27;3;3;
44350;PMS5003;62766;62.622;17.912;2022-10-16T03:00:56;1;1;
44350;PMS5003;62766;62.622;17.912;2022-10-16T03:03:24;1;1;
44350;PMS5003;62766;62.622;17.912;2022-10-16T03:05:53;1;1;
44350;PMS5003;62766;62.622;17.912;2022-10-16T03:08:22;1;1;
44350;PMS5003;62766;62.622;17.912;2022-10-16T03:10:51;1;1;
44350;PMS5003;62766;62.622;17.912;2022-10-16T03:13:19;1;1;
44350;PMS5003;62766;62.622;17.912;2022-10-16T03:15:48;1;1;
44350;PMS5003;62766;62.622;17.912;2022-10-16T03:18:16;2;2;
44350;PMS5003;62766;62.622;17.912;2022-10-16T03:20:44;2;2;
44350;PMS5003;62766;62.622;17.912;2022-10-16T03:23:13;5;5;
44350;PMS5003;62766;62.622;17.912;2022-10-16T03:25:41;4;3;
44350;PMS5003;62766;62.622;17.912;2022-10-16T03:28:09;4;4;
44350;PMS5003;62766;62.622;17.912;2022-10-16T03:30:38;4;4;
44350;PMS5003;62766;62.622;17.912;2022-10-16T03:33:06;2;2;
44350;PMS5003;62766;62.622;17.912;2022-10-16T03:35:34;3;3;
44350;PMS5003;62766;62.622;17.912;2022-10-16T03:38:03;3;3;
44350;PMS5003;62766;62.622;17.912;2022-10-16T03:40:31;2;2;
44350;PMS5003;62766;62.622;17.912;2022-10-16T03:42:59;4;4;
44350;PMS5003;62766;62.622;17.912;2022-10-16T03:45:28;2;2;
44350;PMS5003;62766;62.622;17.912;2022-10-16T03:47:56;2;2;
44350;PMS5003;62766;62.622;17.912;2022-10-16T03:50:24;1;1;
44350;PMS5003;62766;62.622;17.912;2022-10-16T03:52:53;2;2;
44350;PMS5003;62766;62.622;17.912;2022-10-16T03:55:23;4;2;
44350;PMS5003;62766;62.622;17.912;2022-10-16T03:57:52;3;3;
44350;PMS5003;62766;62.622;17.912;2022-10-16T04:03:20;1;1;
44350;PMS5003;62766;62.622;17.912;2022-10-16T04:05:48;2;2;
44350;PMS5003;62766;62.622;17.912;2022-10-16T04:08:16;3;3;
44350;PMS5003;62766;62.622;17.912;2022-10-16T04:10:45;4;4;
44350;PMS5003;62766;62.622;17.912;2022-10-16T04:13:14;3;3;
44350;PMS5003;62766;62.622;17.912;2022-10-16T04:15:44;3;3;
44350;PMS5003;62766;62.622;17.912;2022-10-16T04:18:13;3;3;
44350;PMS5003;62766;62.622;17.912;2022-10-16T04:20:42;1;1;
44350;PMS5003;62766;62.622;17.912;2022-10-16T04:23:10;2;2;
44350;PMS5003;62766;62.622;17.912;2022-10-16T04:25:39;2;2;
44350;PMS5003;62766;62.622;17.912;2022-10-16T04:28:08;1;1;
44350;PMS5003;62766;62.622;17.912;2022-10-16T04:30:37;0;0;
44350;PMS5003;62766;62.622;17.912;2022-10-16T04:33:05;1;0;
44350;PMS5003;62766;62.622;17.912;2022-10-16T04:35:33;1;1;
44350;PMS5003;62766;62.622;17.912;2022-10-16T04:38:02;0;0;
44350;PMS5003;62766;62.622;17.912;2022-10-16T04:40:30;1;1;
44350;PMS5003;62766;62.622;17.912;2022-10-16T04:42:58;1;1;
44350;PMS5003;62766;62.622;17.912;2022-10-16T04:45:27;0;0;
44350;PMS5003;62766;62.622;17.912;2022-10-16T04:47:56;0;0;
44350;PMS5003;62766;62.622;17.912;2022-10-16T04:50:25;0;0;
44350;PMS5003;62766;62.622;17.912;2022-10-16T04:52:54;0;0;
44350;PMS5003;62766;62.622;17.912;2022-10-16T04:55:22;0;0;
44350;PMS5003;62766;62.622;17.912;2022-10-16T04:57:50;1;1;
44350;PMS5003;62766;62.622;17.912;2022-10-16T05:00:19;0;0;
44350;PMS5003;62766;62.622;17.912;2022-10-16T05:02:47;1;1;
44350;PMS5003;62766;62.622;17.912;2022-10-16T05:05:17;1;1;
44350;PMS5003;62766;62.622;17.912;2022-10-16T05:07:45;1;1;
44350;PMS5003;62766;62.622;17.912;2022-10-16T05:10:14;0;0;
44350;PMS5003;62766;62.622;17.912;2022-10-16T05:12:42;1;1;
44350;PMS5003;62766;62.622;17.912;2022-10-16T05:15:10;5;5;
44350;PMS5003;62766;62.622;17.912;2022-10-16T05:17:39;1;1;
44350;PMS5003;62766;62.622;17.912;2022-10-16T05:20:09;1;1;
44350;PMS5003;62766;62.622;17.912;2022-10-16T05:22:37;1;1;
44350;PMS5003;62766;62.622;17.912;2022-10-16T05:25:06;0;0;
44350;PMS5003;62766;62.622;17.912;2022-10-16T05:27:34;1;1;
44350;PMS5003;62766;62.622;17.912;2022-10-16T05:30:02;0;0;
44350;PMS5003;62766;62.622;17.912;2022-10-16T05:32:32;0;0;
44350;PMS5003;62766;62.622;17.912;2022-10-16T05:35:00;0;0;
44350;PMS5003;62766;62.622;17.912;2022-10-16T05:37:29;0;0;
44350;PMS5003;62766;62.622;17.912;2022-10-16T05:39:57;2;2;
44350;PMS5003;62766;62.622;17.912;2022-10-16T05:42:25;3;3;
44350;PMS5003;62766;62.622;17.912;2022-10-16T05:44:54;1;1;
44350;PMS5003;62766;62.622;17.912;2022-10-16T05:47:22;0;0;
44350;PMS5003;62766;62.622;17.912;2022-10-16T05:49:50;1;1;
44350;PMS5003;62766;62.622;17.912;2022-10-16T05:52:18;1;1;
44350;PMS5003;62766;62.622;17.912;2022-10-16T05:54:47;1;0;
44350;PMS5003;62766;62.622;17.912;2022-10-16T05:57:15;1;1;
44350;PMS5003;62766;62.622;17.912;2022-10-16T05:59:43;0;0;
44350;PMS5003;62766;62.622;17.912;2022-10-16T06:02:12;1;1;
44350;PMS5003;62766;62.622;17.912;2022-10-16T06:04:42;2;2;
44350;PMS5003;62766;62.622;17.912;2022-10-16T06:07:10;3;2;
44350;PMS5003;62766;62.622;17.912;2022-10-16T06:09:38;2;1;
44350;PMS5003;62766;62.622;17.912;2022-10-16T06:12:08;2;2;
44350;PMS5003;62766;62.622;17.912;2022-10-16T06:14:37;3;3;
44350;PMS5003;62766;62.622;17.912;2022-10-16T06:17:05;5;5;
44350;PMS5003;62766;62.622;17.912;2022-10-16T06:19:33;6;6;
44350;PMS5003;62766;62.622;17.912;2022-10-16T06:22:01;6;6;
44350;PMS5003;62766;62.622;17.912;2022-10-16T06:24:30;6;6;
44350;PMS5003;62766;62.622;17.912;2022-10-16T06:26:58;7;6;
44350;PMS5003;62766;62.622;17.912;2022-10-16T06:29:26;9;9;
44350;PMS5003;62766;62.622;17.912;2022-10-16T06:31:55;6;6;
44350;PMS5003;62766;62.622;17.912;2022-10-16T06:34:23;11;10;
44350;PMS5003;62766;62.622;17.912;2022-10-16T06:36:51;6;6;
44350;PMS5003;62766;62.622;17.912;2022-10-16T06:39:19;14;11;
44350;PMS5003;62766;62.622;17.912;2022-10-16T06:41:48;11;10;
44350;PMS5003;62766;62.622;17.912;2022-10-16T06:44:17;11;11;
44350;PMS5003;62766;62.622;17.912;2022-10-16T06:46:45;8;8;
44350;PMS5003;62766;62.622;17.912;2022-10-16T06:49:14;9;9;
44350;PMS5003;62766;62.622;17.912;2022-10-16T06:51:42;12;12;
44350;PMS5003;62766;62.622;17.912;2022-10-16T06:54:11;8;7;
44350;PMS5003;62766;62.622;17.912;2022-10-16T06:56:39;9;9;
44350;PMS5003;62766;62.622;17.912;2022-10-16T06:59:09;6;6;
44350;PMS5003;62766;62.622;17.912;2022-10-16T07:01:37;9;9;
44350;PMS5003;62766;62.622;17.912;2022-10-16T07:04:05;6;6;
44350;PMS5003;62766;62.622;17.912;2022-10-16T07:06:34;8;8;
44350;PMS5003;62766;62.622;17.912;2022-10-16T07:09:03;9;7;
44350;PMS5003;62766;62.622;17.912;2022-10-16T07:11:32;9;7;
44350;PMS5003;62766;62.622;17.912;2022-10-16T07:14:02;5;5;
44350;PMS5003;62766;62.622;17.912;2022-10-16T07:16:32;4;4;
44350;PMS5003;62766;62.622;17.912;2022-10-16T07:19:01;4;4;
44350;PMS5003;62766;62.622;17.912;2022-10-16T07:21:31;4;4;
44350;PMS5003;62766;62.622;17.912;2022-10-16T07:24:01;4;4;
44350;PMS5003;62766;62.622;17.912;2022-10-16T07:26:29;5;5;
44350;PMS5003;62766;62.622;17.912;2022-10-16T07:28:59;2;2;
44350;PMS5003;62766;62.622;17.912;2022-10-16T07:31:27;4;4;
44350;PMS5003;62766;62.622;17.912;2022-10-16T07:33:57;4;4;
44350;PMS5003;62766;62.622;17.912;2022-10-16T07:36:27;3;3;
44350;PMS5003;62766;62.622;17.912;2022-10-16T07:38:55;2;2;
44350;PMS5003;62766;62.622;17.912;2022-10-16T07:41:23;2;2;
44350;PMS5003;62766;62.622;17.912;2022-10-16T07:43:52;2;2;
44350;PMS5003;62766;62.622;17.912;2022-10-16T07:46:22;2;2;
44350;PMS5003;62766;62.622;17.912;2022-10-16T07:48:51;1;1;
44350;PMS5003;62766;62.622;17.912;2022-10-16T07:51:21;3;3;
44350;PMS5003;62766;62.622;17.912;2022-10-16T07:53:50;2;2;
44350;PMS5003;62766;62.622;17.912;2022-10-16T07:56:20;2;2;
44350;PMS5003;62766;62.622;17.912;2022-10-16T07:58:49;2;2;
44350;PMS5003;62766;62.622;17.912;2022-10-16T08:01:19;1;1;
44350;PMS5003;62766;62.622;17.912;2022-10-16T08:03:48;7;6;
44350;PMS5003;62766;62.622;17.912;2022-10-16T08:06:18;1;1;
44350;PMS5003;62766;62.622;17.912;2022-10-16T08:08:49;2;2;
44350;PMS5003;62766;62.622;17.912;2022-10-16T08:11:17;3;3;
44350;PMS5003;62766;62.622;17.912;2022-10-16T08:13:45;2;2;
44350;PMS5003;62766;62.622;17.912;2022-10-16T08:16:14;2;2;
44350;PMS5003;62766;62.622;17.912;2022-10-16T08:18:42;3;3;
44350;PMS5003;62766;62.622;17.912;2022-10-16T08:21:12;3;3;
44350;PMS5003;62766;62.622;17.912;2022-10-16T08:23:42;2;2;
44350;PMS5003;62766;62.622;17.912;2022-10-16T08:26:10;3;3;
44350;PMS5003;62766;62.622;17.912;2022-10-16T08:28:41;2;2;
44350;PMS5003;62766;62.622;17.912;2022-10-16T08:31:11;2;2;
44350;PMS5003;62766;62.622;17.912;2022-10-16T08:33:42;2;2;
44350;PMS5003;62766;62.622;17.912;2022-10-16T08:36:13;2;2;
44350;PMS5003;62766;62.622;17.912;2022-10-16T08:38:42;4;4;
44350;PMS5003;62766;62.622;17.912;2022-10-16T08:41:19;5;3;
44350;PMS5003;62766;62.622;17.912;2022-10-16T08:44:04;1;1;
44350;PMS5003;62766;62.622;17.912;2022-10-16T08:46:56;2;2;
44350;PMS5003;62766;62.622;17.912;2022-10-16T08:49:39;2;2;
44350;PMS5003;62766;62.622;17.912;2022-10-16T08:52:12;2;2;
44350;PMS5003;62766;62.622;17.912;2022-10-16T08:54:42;3;2;
44350;PMS5003;62766;62.622;17.912;2022-10-16T08:57:14;1;1;
44350;PMS5003;62766;62.622;17.912;2022-10-16T08:59:47;3;3;
44350;PMS5003;62766;62.622;17.912;2022-10-16T09:02:20;2;2;
44350;PMS5003;62766;62.622;17.912;2022-10-16T09:04:58;1;1;
44350;PMS5003;62766;62.622;17.912;2022-10-16T09:07:35;2;2;
44350;PMS5003;62766;62.622;17.912;2022-10-16T09:10:12;4;4;
44350;PMS5003;62766;62.622;17.912;2022-10-16T09:12:54;2;2;
44350;PMS5003;62766;62.622;17.912;2022-10-16T09:15:32;1;1;
44350;PMS5003;62766;62.622;17.912;2022-10-16T09:18:07;1;1;
44350;PMS5003;62766;62.622;17.912;2022-10-16T09:20:51;2;2;
44350;PMS5003;62766;62.622;17.912;2022-10-16T09:23:25;2;2;
44350;PMS5003;62766;62.622;17.912;2022-10-16T09:25:55;2;2;
44350;PMS5003;62766;62.622;17.912;2022-10-16T09:28:25;2;2;
44350;PMS5003;62766;62.622;17.912;2022-10-16T09:30:55;3;2;
44350;PMS5003;62766;62.622;17.912;2022-10-16T09:33:24;2;2;
44350;PMS5003;62766;62.622;17.912;2022-10-16T09:35:58;1;1;
44350;PMS5003;62766;62.622;17.912;2022-10-16T09:38:29;2;2;
44350;PMS5003;62766;62.622;17.912;2022-10-16T09:41:00;1;1;
44350;PMS5003;62766;62.622;17.912;2022-10-16T09:43:33;2;2;
44350;PMS5003;62766;62.622;17.912;2022-10-16T09:46:07;3;3;
44350;PMS5003;62766;62.622;17.912;2022-10-16T09:48:48;3;3;
44350;PMS5003;62766;62.622;17.912;2022-10-16T09:51:18;3;3;
44350;PMS5003;62766;62.622;17.912;2022-10-16T09:53:54;1;1;
44350;PMS5003;62766;62.622;17.912;2022-10-16T09:56:25;1;1;
44350;PMS5003;62766;62.622;17.912;2022-10-16T09:58:56;2;2;
44350;PMS5003;62766;62.622;17.912;2022-10-16T10:03:26;1;1;
44350;PMS5003;62766;62.622;17.912;2022-10-16T10:06:06;4;2;
44350;PMS5003;62766;62.622;17.912;2022-10-16T10:08:52;3;2;
44350;PMS5003;62766;62.622;17.912;2022-10-16T10:11:55;2;2;
44350;PMS5003;62766;62.622;17.912;2022-10-16T10:14:25;0;0;
44350;PMS5003;62766;62.622;17.912;2022-10-16T10:17:14;2;1;
44350;PMS5003;62766;62.622;17.912;2022-10-16T10:19:46;1;1;
44350;PMS5003;62766;62.622;17.912;2022-10-16T10:22:21;1;1;
44350;PMS5003;62766;62.622;17.912;2022-10-16T10:25:00;1;1;
44350;PMS5003;62766;62.622;17.912;2022-10-16T10:27:46;1;1;
44350;PMS5003;62766;62.622;17.912;2022-10-16T10:30:26;1;1;
44350;PMS5003;62766;62.622;17.912;2022-10-16T10:33:07;2;2;
44350;PMS5003;62766;62.622;17.912;2022-10-16T10:35:48;1;1;
44350;PMS5003;62766;62.622;17.912;2022-10-16T10:38:31;0;0;
44350;PMS5003;62766;62.622;17.912;2022-10-16T10:41:16;2;2;
44350;PMS5003;62766;62.622;17.912;2022-10-16T10:45:03;1;1;
44350;PMS5003;62766;62.622;17.912;2022-10-16T10:47:45;1;1;
44350;PMS5003;62766;62.622;17.912;2022-10-16T10:50:22;0;0;
44350;PMS5003;62766;62.622;17.912;2022-10-16T10:52:59;0;0;
44350;PMS5003;62766;62.622;17.912;2022-10-16T10:55:37;0;0;
44350;PMS5003;62766;62.622;17.912;2022-10-16T10:58:17;1;1;
44350;PMS5003;62766;62.622;17.912;2022-10-16T11:01:07;1;1;
44350;PMS5003;62766;62.622;17.912;2022-10-16T11:03:42;2;2;
44350;PMS5003;62766;62.622;17.912;2022-10-16T11:06:26;2;2;
44350;PMS5003;62766;62.622;17.912;2022-10-16T11:08:59;1;1;
44350;PMS5003;62766;62.622;17.912;2022-10-16T11:11:31;1;1;
44350;PMS5003;62766;62.622;17.912;2022-10-16T11:14:04;2;0;
44350;PMS5003;62766;62.622;17.912;2022-10-16T11:16:43;0;0;
44350;PMS5003;62766;62.622;17.912;2022-10-16T11:19:20;1;1;
44350;PMS5003;62766;62.622;17.912;2022-10-16T11:22:00;1;1;
44350;PMS5003;62766;62.622;17.912;2022-10-16T11:24:35;0;0;
44350;PMS5003;62766;62.622;17.912;2022-10-16T11:27:12;2;2;
44350;PMS5003;62766;62.622;17.912;2022-10-16T11:29:46;1;1;
44350;PMS5003;62766;62.622;17.912;2022-10-16T11:32:24;0;0;
44350;PMS5003;62766;62.622;17.912;2022-10-16T11:34:59;1;1;
44350;PMS5003;62766;62.622;17.912;2022-10-16T11:37:33;1;1;
44350;PMS5003;62766;62.622;17.912;2022-10-16T11:40:20;0;0;
44350;PMS5003;62766;62.622;17.912;2022-10-16T11:42:54;0;0;
44350;PMS5003;62766;62.622;17.912;2022-10-16T11:45:32;0;0;
44350;PMS5003;62766;62.622;17.912;2022-10-16T11:48:08;0;0;
44350;PMS5003;62766;62.622;17.912;2022-10-16T11:50:49;0;0;
44350;PMS5003;62766;62.622;17.912;2022-10-16T11:53:24;0;0;
44350;PMS5003;62766;62.622;17.912;2022-10-16T11:56:03;0;0;
44350;PMS5003;62766;62.622;17.912;2022-10-16T11:58:34;0;0;
44350;PMS5003;62766;62.622;17.912;2022-10-16T12:01:15;0;0;
44350;PMS5003;62766;62.622;17.912;2022-10-16T12:03:54;0;0;
44350;PMS5003;62766;62.622;17.912;2022-10-16T12:06:32;0;0;
44350;PMS5003;62766;62.622;17.912;2022-10-16T12:09:11;0;0;
44350;PMS5003;62766;62.622;17.912;2022-10-16T12:11:48;0;0;
44350;PMS5003;62766;62.622;17.912;2022-10-16T12:14:18;0;0;
44350;PMS5003;62766;62.622;17.912;2022-10-16T12:16:50;0;0;
44350;PMS5003;62766;62.622;17.912;2022-10-16T12:19:20;0;0;
44350;PMS5003;62766;62.622;17.912;2022-10-16T12:21:50;0;0;
44350;PMS5003;62766;62.622;17.912;2022-10-16T12:24:21;0;0;
44350;PMS5003;62766;62.622;17.912;2022-10-16T12:26:58;0;0;
44350;PMS5003;62766;62.622;17.912;2022-10-16T12:29:31;0;0;
44350;PMS5003;62766;62.622;17.912;2022-10-16T12:32:02;0;0;
44350;PMS5003;62766;62.622;17.912;2022-10-16T12:34:36;0;0;
44350;PMS5003;62766;62.622;17.912;2022-10-16T12:37:12;0;0;
44350;PMS5003;62766;62.622;17.912;2022-10-16T12:39:42;0;0;
44350;PMS5003;62766;62.622;17.912;2022-10-16T12:42:34;0;0;
44350;PMS5003;62766;62.622;17.912;2022-10-16T12:45:13;0;0;
44350;PMS5003;62766;62.622;17.912;2022-10-16T12:47:52;0;0;
44350;PMS5003;62766;62.622;17.912;2022-10-16T12:50:26;0;0;
44350;PMS5003;62766;62.622;17.912;2022-10-16T12:52:57;0;0;
44350;PMS5003;62766;62.622;17.912;2022-10-16T12:55:27;0;0;
44350;PMS5003;62766;62.622;17.912;2022-10-16T12:58:06;0;0;
44350;PMS5003;62766;62.622;17.912;2022-10-16T13:00:45;0;0;
44350;PMS5003;62766;62.622;17.912;2022-10-16T13:03:23;0;0;
44350;PMS5003;62766;62.622;17.912;2022-10-16T13:06:08;0;0;
44350;PMS5003;62766;62.622;17.912;2022-10-16T13:08:52;1;0;
44350;PMS5003;62766;62.622;17.912;2022-10-16T13:11:41;0;0;
44350;PMS5003;62766;62.622;17.912;2022-10-16T13:14:24;0;0;
44350;PMS5003;62766;62.622;17.912;2022-10-16T13:17:11;0;0;
44350;PMS5003;62766;62.622;17.912;2022-10-16T13:19:52;0;0;
44350;PMS5003;62766;62.622;17.912;2022-10-16T13:22:33;0;0;
44350;PMS5003;62766;62.622;17.912;2022-10-16T13:25:15;1;0;
44350;PMS5003;62766;62.622;17.912;2022-10-16T13:27:52;0;0;
44350;PMS5003;62766;62.622;17.912;2022-10-16T13:30:24;0;0;
44350;PMS5003;62766;62.622;17.912;2022-10-16T13:32:56;0;0;
44350;PMS5003;62766;62.622;17.912;2022-10-16T13:35:29;0;0;
44350;PMS5003;62766;62.622;17.912;2022-10-16T13:38:04;0;0;
44350;PMS5003;62766;62.622;17.912;2022-10-16T13:40:35;0;0;
44350;PMS5003;62766;62.622;17.912;2022-10-16T13:43:05;0;0;
44350;PMS5003;62766;62.622;17.912;2022-10-16T13:45:33;0;0;
44350;PMS5003;62766;62.622;17.912;2022-10-16T13:48:02;0;0;
44350;PMS5003;62766;62.622;17.912;2022-10-16T13:50:31;0;0;
44350;PMS5003;62766;62.622;17.912;2022-10-16T13:53:03;0;0;
44350;PMS5003;62766;62.622;17.912;2022-10-16T13:55:33;0;0;
44350;PMS5003;62766;62.622;17.912;2022-10-16T13:58:04;0;0;
44350;PMS5003;62766;62.622;17.912;2022-10-16T14:00:34;0;0;
44350;PMS5003;62766;62.622;17.912;2022-10-16T14:03:03;0;0;
44350;PMS5003;62766;62.622;17.912;2022-10-16T14:05:32;0;0;
44350;PMS5003;62766;62.622;17.912;2022-10-16T14:08:02;0;0;
44350;PMS5003;62766;62.622;17.912;2022-10-16T14:10:31;0;0;
44350;PMS5003;62766;62.622;17.912;2022-10-16T14:13:01;0;0;
44350;PMS5003;62766;62.622;17.912;2022-10-16T14:15:33;0;0;
44350;PMS5003;62766;62.622;17.912;2022-10-16T14:18:02;0;0;
44350;PMS5003;62766;62.622;17.912;2022-10-16T14:20:33;0;0;
44350;PMS5003;62766;62.622;17.912;2022-10-16T14:23:03;0;0;
44350;PMS5003;62766;62.622;17.912;2022-10-16T14:25:46;0;0;
44350;PMS5003;62766;62.622;17.912;2022-10-16T14:28:15;0;0;
44350;PMS5003;62766;62.622;17.912;2022-10-16T14:30:50;0;0;
44350;PMS5003;62766;62.622;17.912;2022-10-16T14:33:22;0;0;
44350;PMS5003;62766;62.622;17.912;2022-10-16T14:36:01;0;0;
44350;PMS5003;62766;62.622;17.912;2022-10-16T14:38:33;0;0;
44350;PMS5003;62766;62.622;17.912;2022-10-16T14:41:01;0;0;
44350;PMS5003;62766;62.622;17.912;2022-10-16T14:43:33;0;0;
44350;PMS5003;62766;62.622;17.912;2022-10-16T14:46:06;0;0;
44350;PMS5003;62766;62.622;17.912;2022-10-16T14:48:40;0;0;
44350;PMS5003;62766;62.622;17.912;2022-10-16T14:51:11;1;1;
44350;PMS5003;62766;62.622;17.912;2022-10-16T14:53:41;1;1;
44350;PMS5003;62766;62.622;17.912;2022-10-16T14:56:14;3;3;
44350;PMS5003;62766;62.622;17.912;2022-10-16T14:58:46;6;6;
44350;PMS5003;62766;62.622;17.912;2022-10-16T15:01:16;4;4;
44350;PMS5003;62766;62.622;17.912;2022-10-16T15:03:46;5;5;
44350;PMS5003;62766;62.622;17.912;2022-10-16T15:06:15;7;7;
44350;PMS5003;62766;62.622;17.912;2022-10-16T15:08:44;5;5;
44350;PMS5003;62766;62.622;17.912;2022-10-16T15:11:13;5;5;
44350;PMS5003;62766;62.622;17.912;2022-10-16T15:13:44;4;4;
44350;PMS5003;62766;62.622;17.912;2022-10-16T15:16:13;9;9;
44350;PMS5003;62766;62.622;17.912;2022-10-16T15:18:43;7;7;
44350;PMS5003;62766;62.622;17.912;2022-10-16T15:21:13;3;2;
44350;PMS5003;62766;62.622;17.912;2022-10-16T15:23:50;2;2;
44350;PMS5003;62766;62.622;17.912;2022-10-16T15:26:18;2;2;
44350;PMS5003;62766;62.622;17.912;2022-10-16T15:28:46;1;1;
44350;PMS5003;62766;62.622;17.912;2022-10-16T15:31:15;2;2;
44350;PMS5003;62766;62.622;17.912;2022-10-16T15:33:43;3;1;
44350;PMS5003;62766;62.622;17.912;2022-10-16T15:36:11;1;1;
44350;PMS5003;62766;62.622;17.912;2022-10-16T15:38:39;1;1;
44350;PMS5003;62766;62.622;17.912;2022-10-16T15:41:07;2;1;
44350;PMS5003;62766;62.622;17.912;2022-10-16T15:43:36;1;1;
44350;PMS5003;62766;62.622;17.912;2022-10-16T15:46:06;0;0;
44350;PMS5003;62766;62.622;17.912;2022-10-16T15:48:39;0;0;
44350;PMS5003;62766;62.622;17.912;2022-10-16T15:51:07;1;1;
44350;PMS5003;62766;62.622;17.912;2022-10-16T15:53:36;1;1;
44350;PMS5003;62766;62.622;17.912;2022-10-16T15:56:06;1;1;
44350;PMS5003;62766;62.622;17.912;2022-10-16T15:58:36;0;0;
44350;PMS5003;62766;62.622;17.912;2022-10-16T16:03:38;1;1;
44350;PMS5003;62766;62.622;17.912;2022-10-16T16:06:07;2;0;
44350;PMS5003;62766;62.622;17.912;2022-10-16T16:08:38;0;0;
44350;PMS5003;62766;62.622;17.912;2022-10-16T16:11:09;0;0;
44350;PMS5003;62766;62.622;17.912;2022-10-16T16:13:40;5;4;
44350;PMS5003;62766;62.622;17.912;2022-10-16T16:16:09;1;1;
44350;PMS5003;62766;62.622;17.912;2022-10-16T16:18:38;3;2;
44350;PMS5003;62766;62.622;17.912;2022-10-16T16:21:09;3;1;
44350;PMS5003;62766;62.622;17.912;2022-10-16T16:23:38;2;2;
44350;PMS5003;62766;62.622;17.912;2022-10-16T16:26:07;4;4;
44350;PMS5003;62766;62.622;17.912;2022-10-16T16:28:40;9;7;
44350;PMS5003;62766;62.622;17.912;2022-10-16T16:31:10;2;2;
44350;PMS5003;62766;62.622;17.912;2022-10-16T16:33:38;3;3;
44350;PMS5003;62766;62.622;17.912;2022-10-16T16:36:06;3;3;
44350;PMS5003;62766;62.622;17.912;2022-10-16T16:38:34;3;3;
44350;PMS5003;62766;62.622;17.912;2022-10-16T16:41:10;5;3;
44350;PMS5003;62766;62.622;17.912;2022-10-16T16:43:40;3;3;
44350;PMS5003;62766;62.622;17.912;2022-10-16T16:46:08;2;2;
44350;PMS5003;62766;62.622;17.912;2022-10-16T16:48:38;1;1;
44350;PMS5003;62766;62.622;17.912;2022-10-16T16:51:07;2;1;
44350;PMS5003;62766;62.622;17.912;2022-10-16T16:53:47;38;27;
44350;PMS5003;62766;62.622;17.912;2022-10-16T16:56:23;17;13;
44350;PMS5003;62766;62.622;17.912;2022-10-16T16:58:53;14;14;
44350;PMS5003;62766;62.622;17.912;2022-10-16T17:01:35;36;32;
44350;PMS5003;62766;62.622;17.912;2022-10-16T17:04:17;48;43;
44350;PMS5003;62766;62.622;17.912;2022-10-16T17:06:46;8;8;
44350;PMS5003;62766;62.622;17.912;2022-10-16T17:09:15;5;5;
44350;PMS5003;62766;62.622;17.912;2022-10-16T17:11:43;8;8;
44350;PMS5003;62766;62.622;17.912;2022-10-16T17:14:11;11;11;